Ce_breeze — ELSQ7 — position and weather

sailwx.info

Track history (hours):
 
Tides and Currents Weather Stations Pressure Air Temp Water Temp Dewpoint Dewpoint Depression Visibility Wind Speed Wind Dir Waves Ship Positions

Ce_breeze

Last reported at 2015-Jun-25 22:33 UTC. Time now 2015-Jun-30 12:43 UTC.
Position N 34°55' E 027°49'.

Length 240 m; draft 8 m.

Type: Tanker. MMSI: 636010400.

Date/timePositionNaut miles runAvg speedWind from/ knotsBaromVisibWave heightAir tempDewpointWater temp
2015-Jun-25 22:33N 34°55' E 027°49'51812.9
2015-Jun-24 06:31N 35°35' E 017°16'1413.3
2015-Jun-24 05:30N 35°37' E 016°60'1212.9
2015-Jun-24 04:33N 35°39' E 016°45'2613.1
2015-Jun-24 02:33N 35°43' E 016°13'1313.3
2015-Jun-24 01:33N 35°45' E 015°57'1312.9
2015-Jun-24 00:33N 35°47' E 015°41'1312.9
2015-Jun-23 23:33N 35°50' E 015°25'1313.3
2015-Jun-23 22:33N 35°52' E 015°09'1313.0
2015-Jun-23 21:33N 35°53' E 014°53'6 6.2
2015-Jun-23 20:33N 35°54' E 014°46'0 0.0
2015-Jun-23 19:33N 35°54' E 014°46'0 0.0
2015-Jun-23 19:03N 35°54' E 014°46'24010.2
2015-Jun-22 19:33N 38°17' E 010°43'1212.2
2015-Jun-22 18:33N 38°23' E 010°30'1212.1
2015-Jun-22 17:32N 38°30' E 010°16'1212.5
2015-Jun-22 16:33N 38°36' E 010°03'1313.0
2015-Jun-22 15:33N 38°43' E 009°49'1413.5
2015-Jun-22 14:33N 38°50' E 009°34'1313.3
2015-Jun-22 13:33N 38°57' E 009°20'1212.1
2015-Jun-22 12:33N 39°03' E 009°06'3 3.1
2015-Jun-22 11:32N 39°05' E 009°03'0 0.0
2015-Jun-22 10:32N 39°05' E 009°03'0 0.0
2015-Jun-22 09:32N 39°05' E 009°03'0 0.0
2015-Jun-22 08:32N 39°05' E 009°03'0 0.0
2015-Jun-22 07:32N 39°05' E 009°03'0 0.0
2015-Jun-22 06:32N 39°05' E 009°03'0 0.0
2015-Jun-22 05:32N 39°05' E 009°03'0 0.0
2015-Jun-22 04:32N 39°05' E 009°03'0 0.0
2015-Jun-22 03:32N 39°05' E 009°03'0 0.0
2015-Jun-22 02:29N 39°05' E 009°03'0 0.0
2015-Jun-22 01:32N 39°05' E 009°03'0 0.0
2015-Jun-22 00:32N 39°05' E 009°03'0 0.0
2015-Jun-21 23:32N 39°05' E 009°03'0 0.0
2015-Jun-21 22:32N 39°05' E 009°03'0 0.0
2015-Jun-21 21:32N 39°05' E 009°03'0 0.0
2015-Jun-21 20:29N 39°05' E 009°03'0 0.0
2015-Jun-21 19:32N 39°05' E 009°03'0 0.0
2015-Jun-21 18:32N 39°05' E 009°03'0 0.0
2015-Jun-21 17:32N 39°05' E 009°03'0 0.0
2015-Jun-21 16:32N 39°05' E 009°03'0 0.0
2015-Jun-21 15:32N 39°05' E 009°03'0 0.0
2015-Jun-21 14:32N 39°05' E 009°03'0 0.0
2015-Jun-21 13:32N 39°05' E 009°03'0 0.0
2015-Jun-21 12:32N 39°05' E 009°03'0 0.0
2015-Jun-21 11:32N 39°05' E 009°03'0 0.0
2015-Jun-21 10:32N 39°05' E 009°03'0 0.0
2015-Jun-21 09:32N 39°05' E 009°03'0 0.0
2015-Jun-21 08:32N 39°05' E 009°03'1 0.9
2015-Jun-21 07:33N 39°05' E 009°04'1 0.7
2015-Jun-21 06:33N 39°05' E 009°05'0 0.0
2015-Jun-21 05:33N 39°05' E 009°05'0 0.0
2015-Jun-21 04:33N 39°05' E 009°05'0 0.0
2015-Jun-21 03:33N 39°05' E 009°05'0 0.1
2015-Jun-21 02:33N 39°05' E 009°05'0 0.1
2015-Jun-21 01:33N 39°05' E 009°05'0 0.0
2015-Jun-21 00:33N 39°05' E 009°05'0 0.1
2015-Jun-20 23:33N 39°05' E 009°05'0 0.1
2015-Jun-20 22:33N 39°05' E 009°05'0 0.0
2015-Jun-20 21:33N 39°05' E 009°05'0 0.1
2015-Jun-20 20:33N 39°05' E 009°05'0 0.0
2015-Jun-20 19:33N 39°05' E 009°05'0 0.0
2015-Jun-20 18:33N 39°05' E 009°05'0 0.1
2015-Jun-20 17:33N 39°05' E 009°05'0 0.1
2015-Jun-20 16:33N 39°05' E 009°05'0 0.1
2015-Jun-20 15:33N 39°05' E 009°05'0 0.1
2015-Jun-20 14:33N 39°05' E 009°05'0 0.0
2015-Jun-20 13:33N 39°05' E 009°05'0 0.0
2015-Jun-20 12:33N 39°05' E 009°05'0 0.1
2015-Jun-20 11:33N 39°05' E 009°05'0 0.0
2015-Jun-20 10:33N 39°05' E 009°05'0 0.0
2015-Jun-20 09:33N 39°05' E 009°05'0 0.0
2015-Jun-20 08:33N 39°05' E 009°05'0 0.1
2015-Jun-20 07:33N 39°05' E 009°05'0 0.1
2015-Jun-20 06:33N 39°05' E 009°05'0 0.0
2015-Jun-20 05:33N 39°05' E 009°05'0 0.0
2015-Jun-20 04:33N 39°05' E 009°05'0 0.0
2015-Jun-20 03:33N 39°05' E 009°05'0 0.1
2015-Jun-20 02:33N 39°05' E 009°05'0 0.2
2015-Jun-20 01:33N 39°05' E 009°05'0 0.1
2015-Jun-20 00:33N 39°05' E 009°05'0 0.0
2015-Jun-19 23:33N 39°05' E 009°05'0 0.0
2015-Jun-19 22:33N 39°05' E 009°05'0 0.0
2015-Jun-19 21:33N 39°05' E 009°05'0 0.1
2015-Jun-19 20:33N 39°05' E 009°05'0 0.0
2015-Jun-19 19:33N 39°05' E 009°05'0 0.0
2015-Jun-19 18:33N 39°05' E 009°05'0 0.0
2015-Jun-19 17:33N 39°05' E 009°05'0 0.0
2015-Jun-19 16:33N 39°05' E 009°05'0 0.0
2015-Jun-19 15:33N 39°05' E 009°05'0 0.0
2015-Jun-19 14:33N 39°05' E 009°05'0 0.0
2015-Jun-19 13:30N 39°05' E 009°05'0 0.0
2015-Jun-19 12:33N 39°05' E 009°05'0 0.0
2015-Jun-19 11:33N 39°05' E 009°05'0 0.1
2015-Jun-19 10:33N 39°05' E 009°05'0 0.1
2015-Jun-19 09:33N 39°05' E 009°05'0 0.0
2015-Jun-19 08:33N 39°05' E 009°05'0 0.0
2015-Jun-19 07:33N 39°05' E 009°05'0 0.0
2015-Jun-19 06:33N 39°05' E 009°05'0 0.0
2015-Jun-19 05:33N 39°05' E 009°05'0 0.0
2015-Jun-19 04:33N 39°05' E 009°05'0 0.0
2015-Jun-19 03:33N 39°05' E 009°05'0 0.0
2015-Jun-19 02:33N 39°05' E 009°05'0 0.0
2015-Jun-19 01:33N 39°05' E 009°05'0 0.0
2015-Jun-19 00:33N 39°05' E 009°05'0 0.0
2015-Jun-18 23:33N 39°05' E 009°05'0 0.0
2015-Jun-18 22:30N 39°05' E 009°05'0 0.0
2015-Jun-18 21:33N 39°05' E 009°05'0 0.0
2015-Jun-18 20:33N 39°05' E 009°05'0 0.1
2015-Jun-18 19:33N 39°05' E 009°05'0 0.2
2015-Jun-18 18:33N 39°05' E 009°05'0 0.2
2015-Jun-18 17:33N 39°05' E 009°05'0 0.0
2015-Jun-18 16:33N 39°05' E 009°05'0 0.0
2015-Jun-18 15:33N 39°05' E 009°05'0 0.0
2015-Jun-18 14:33N 39°05' E 009°05'0 0.0
2015-Jun-18 13:33N 39°05' E 009°05'0 0.1
2015-Jun-18 12:33N 39°05' E 009°05'0 0.2
2015-Jun-18 11:33N 39°05' E 009°05'0 0.1
2015-Jun-18 10:33N 39°05' E 009°05'0 0.1
2015-Jun-18 09:33N 39°05' E 009°05'0 0.1
2015-Jun-18 08:33N 39°05' E 009°05'0 0.0
2015-Jun-18 07:33N 39°05' E 009°05'0 0.0
2015-Jun-18 06:33N 39°05' E 009°05'0 0.0
2015-Jun-18 05:33N 39°05' E 009°05'0 0.0
2015-Jun-18 04:33N 39°05' E 009°05'0 0.1
2015-Jun-18 03:33N 39°05' E 009°05'0 0.1
2015-Jun-18 02:33N 39°05' E 009°05'0 0.0
2015-Jun-18 01:33N 39°05' E 009°05'0 0.1
2015-Jun-18 00:30N 39°05' E 009°05'0 0.1
2015-Jun-17 23:33N 39°05' E 009°05'0 0.1
2015-Jun-17 22:33N 39°05' E 009°05'0 0.1
2015-Jun-17 21:33N 39°05' E 009°05'0 0.1
2015-Jun-17 20:33N 39°05' E 009°05'0 0.1
2015-Jun-17 19:33N 39°05' E 009°05'0 0.0
2015-Jun-17 18:33N 39°05' E 009°05'0 0.0
2015-Jun-17 17:33N 39°05' E 009°05'0 0.1
2015-Jun-17 16:33N 39°05' E 009°05'0 0.1
2015-Jun-17 15:33N 39°05' E 009°05'0 0.0
2015-Jun-17 14:33N 39°05' E 009°05'0 0.0
2015-Jun-17 13:33N 39°05' E 009°05'0 0.0
2015-Jun-17 12:33N 39°05' E 009°05'0 0.1
2015-Jun-17 11:33N 39°05' E 009°05'0 0.0
2015-Jun-17 10:33N 39°05' E 009°05'0 0.0
2015-Jun-17 09:33N 39°05' E 009°05'0 0.0
2015-Jun-17 08:33N 39°05' E 009°05'0 0.0
2015-Jun-17 07:33N 39°05' E 009°05'0 0.1
2015-Jun-17 06:33N 39°05' E 009°05'0 0.1
2015-Jun-17 05:33N 39°05' E 009°05'0 0.0
2015-Jun-17 04:33N 39°05' E 009°05'0 0.0
2015-Jun-17 03:33N 39°05' E 009°05'0 0.0
2015-Jun-17 02:33N 39°05' E 009°05'0 0.0
2015-Jun-17 01:33N 39°05' E 009°05'0 0.1
2015-Jun-17 00:33N 39°05' E 009°05'0 0.1
2015-Jun-16 23:33N 39°05' E 009°05'0 0.0
2015-Jun-16 22:33N 39°05' E 009°05'0 0.1
2015-Jun-16 21:33N 39°05' E 009°05'0 0.0
2015-Jun-16 20:33N 39°05' E 009°05'0 0.1
2015-Jun-16 19:33N 39°05' E 009°05'0 0.1
2015-Jun-16 18:33N 39°05' E 009°05'0 0.1
2015-Jun-16 17:33N 39°05' E 009°05'0 0.0
2015-Jun-16 16:33N 39°05' E 009°05'0 0.1
2015-Jun-16 15:33N 39°05' E 009°05'0 0.1
2015-Jun-16 14:33N 39°05' E 009°05'0 0.1
2015-Jun-16 13:30N 39°05' E 009°05'0 0.0
2015-Jun-16 12:33N 39°05' E 009°05'0 0.1
2015-Jun-16 11:33N 39°05' E 009°05'0 0.1
2015-Jun-16 10:33N 39°05' E 009°05'0 0.1
2015-Jun-16 09:33N 39°05' E 009°05'0 0.1
2015-Jun-16 08:33N 39°05' E 009°05'0 0.0
2015-Jun-16 07:33N 39°05' E 009°05'0 0.0
2015-Jun-16 06:33N 39°05' E 009°05'0 0.0
2015-Jun-16 05:33N 39°05' E 009°05'0 0.0
2015-Jun-16 04:33N 39°05' E 009°05'0 0.0
2015-Jun-16 03:33N 39°05' E 009°05'0 0.1
2015-Jun-16 02:33N 39°05' E 009°05'0 0.0
2015-Jun-16 01:33N 39°05' E 009°05'0 0.0
2015-Jun-16 00:33N 39°05' E 009°05'0 0.1
2015-Jun-15 23:33N 39°05' E 009°05'  
Track history (hours):
 
Tides and Currents Weather Stations Pressure Air Temp Water Temp Dewpoint Dewpoint Depression Visibility Wind Speed Wind Dir Waves Ship Positions

Ce_breeze

Last reported at 2015-Jun-25 22:33 UTC. Time now 2015-Jun-30 12:43 UTC.
Position N 34°55' E 027°49'.

Length 240 m; draft 8 m.

Type: Tanker. MMSI: 636010400.

Date/timePositionNaut miles runAvg speedWind from/ knotsBaromVisibWave heightAir tempDewpointWater temp
2015-Jun-25 22:33N 34°55' E 027°49'51812.9
2015-Jun-24 06:31N 35°35' E 017°16'1413.3
2015-Jun-24 05:30N 35°37' E 016°60'1212.9
2015-Jun-24 04:33N 35°39' E 016°45'2613.1
2015-Jun-24 02:33N 35°43' E 016°13'1313.3
2015-Jun-24 01:33N 35°45' E 015°57'1312.9
2015-Jun-24 00:33N 35°47' E 015°41'1312.9
2015-Jun-23 23:33N 35°50' E 015°25'1313.3
2015-Jun-23 22:33N 35°52' E 015°09'1313.0
2015-Jun-23 21:33N 35°53' E 014°53'6 6.2
2015-Jun-23 20:33N 35°54' E 014°46'0 0.0
2015-Jun-23 19:33N 35°54' E 014°46'0 0.0
2015-Jun-23 19:03N 35°54' E 014°46'24010.2
2015-Jun-22 19:33N 38°17' E 010°43'1212.2
2015-Jun-22 18:33N 38°23' E 010°30'1212.1
2015-Jun-22 17:32N 38°30' E 010°16'1212.5
2015-Jun-22 16:33N 38°36' E 010°03'1313.0
2015-Jun-22 15:33N 38°43' E 009°49'1413.5
2015-Jun-22 14:33N 38°50' E 009°34'1313.3
2015-Jun-22 13:33N 38°57' E 009°20'1212.1
2015-Jun-22 12:33N 39°03' E 009°06'3 3.1
2015-Jun-22 11:32N 39°05' E 009°03'0 0.0
2015-Jun-22 10:32N 39°05' E 009°03'0 0.0
2015-Jun-22 09:32N 39°05' E 009°03'0 0.0
2015-Jun-22 08:32N 39°05' E 009°03'0 0.0
2015-Jun-22 07:32N 39°05' E 009°03'0 0.0
2015-Jun-22 06:32N 39°05' E 009°03'0 0.0
2015-Jun-22 05:32N 39°05' E 009°03'0 0.0
2015-Jun-22 04:32N 39°05' E 009°03'0 0.0
2015-Jun-22 03:32N 39°05' E 009°03'0 0.0
2015-Jun-22 02:29N 39°05' E 009°03'0 0.0
2015-Jun-22 01:32N 39°05' E 009°03'0 0.0
2015-Jun-22 00:32N 39°05' E 009°03'0 0.0
2015-Jun-21 23:32N 39°05' E 009°03'0 0.0
2015-Jun-21 22:32N 39°05' E 009°03'0 0.0
2015-Jun-21 21:32N 39°05' E 009°03'0 0.0
2015-Jun-21 20:29N 39°05' E 009°03'0 0.0
2015-Jun-21 19:32N 39°05' E 009°03'0 0.0
2015-Jun-21 18:32N 39°05' E 009°03'0 0.0
2015-Jun-21 17:32N 39°05' E 009°03'0 0.0
2015-Jun-21 16:32N 39°05' E 009°03'0 0.0
2015-Jun-21 15:32N 39°05' E 009°03'0 0.0
2015-Jun-21 14:32N 39°05' E 009°03'0 0.0
2015-Jun-21 13:32N 39°05' E 009°03'0 0.0
2015-Jun-21 12:32N 39°05' E 009°03'0 0.0
2015-Jun-21 11:32N 39°05' E 009°03'0 0.0
2015-Jun-21 10:32N 39°05' E 009°03'0 0.0
2015-Jun-21 09:32N 39°05' E 009°03'0 0.0
2015-Jun-21 08:32N 39°05' E 009°03'1 0.9
2015-Jun-21 07:33N 39°05' E 009°04'1 0.7
2015-Jun-21 06:33N 39°05' E 009°05'0 0.0
2015-Jun-21 05:33N 39°05' E 009°05'0 0.0
2015-Jun-21 04:33N 39°05' E 009°05'0 0.0
2015-Jun-21 03:33N 39°05' E 009°05'0 0.1
2015-Jun-21 02:33N 39°05' E 009°05'0 0.1
2015-Jun-21 01:33N 39°05' E 009°05'0 0.0
2015-Jun-21 00:33N 39°05' E 009°05'0 0.1
2015-Jun-20 23:33N 39°05' E 009°05'0 0.1
2015-Jun-20 22:33N 39°05' E 009°05'0 0.0
2015-Jun-20 21:33N 39°05' E 009°05'0 0.1
2015-Jun-20 20:33N 39°05' E 009°05'0 0.0
2015-Jun-20 19:33N 39°05' E 009°05'0 0.0
2015-Jun-20 18:33N 39°05' E 009°05'0 0.1
2015-Jun-20 17:33N 39°05' E 009°05'0 0.1
2015-Jun-20 16:33N 39°05' E 009°05'0 0.1
2015-Jun-20 15:33N 39°05' E 009°05'0 0.1
2015-Jun-20 14:33N 39°05' E 009°05'0 0.0
2015-Jun-20 13:33N 39°05' E 009°05'0 0.0
2015-Jun-20 12:33N 39°05' E 009°05'0 0.1
2015-Jun-20 11:33N 39°05' E 009°05'0 0.0
2015-Jun-20 10:33N 39°05' E 009°05'0 0.0
2015-Jun-20 09:33N 39°05' E 009°05'0 0.0
2015-Jun-20 08:33N 39°05' E 009°05'0 0.1
2015-Jun-20 07:33N 39°05' E 009°05'0 0.1
2015-Jun-20 06:33N 39°05' E 009°05'0 0.0
2015-Jun-20 05:33N 39°05' E 009°05'0 0.0
2015-Jun-20 04:33N 39°05' E 009°05'0 0.0
2015-Jun-20 03:33N 39°05' E 009°05'0 0.1
2015-Jun-20 02:33N 39°05' E 009°05'0 0.2
2015-Jun-20 01:33N 39°05' E 009°05'0 0.1
2015-Jun-20 00:33N 39°05' E 009°05'0 0.0
2015-Jun-19 23:33N 39°05' E 009°05'0 0.0
2015-Jun-19 22:33N 39°05' E 009°05'0 0.0
2015-Jun-19 21:33N 39°05' E 009°05'0 0.1
2015-Jun-19 20:33N 39°05' E 009°05'0 0.0
2015-Jun-19 19:33N 39°05' E 009°05'0 0.0
2015-Jun-19 18:33N 39°05' E 009°05'0 0.0
2015-Jun-19 17:33N 39°05' E 009°05'0 0.0
2015-Jun-19 16:33N 39°05' E 009°05'0 0.0
2015-Jun-19 15:33N 39°05' E 009°05'0 0.0
2015-Jun-19 14:33N 39°05' E 009°05'0 0.0
2015-Jun-19 13:30N 39°05' E 009°05'0 0.0
2015-Jun-19 12:33N 39°05' E 009°05'0 0.0
2015-Jun-19 11:33N 39°05' E 009°05'0 0.1
2015-Jun-19 10:33N 39°05' E 009°05'0 0.1
2015-Jun-19 09:33N 39°05' E 009°05'0 0.0
2015-Jun-19 08:33N 39°05' E 009°05'0 0.0
2015-Jun-19 07:33N 39°05' E 009°05'0 0.0
2015-Jun-19 06:33N 39°05' E 009°05'0 0.0
2015-Jun-19 05:33N 39°05' E 009°05'0 0.0
2015-Jun-19 04:33N 39°05' E 009°05'0 0.0
2015-Jun-19 03:33N 39°05' E 009°05'0 0.0
2015-Jun-19 02:33N 39°05' E 009°05'0 0.0
2015-Jun-19 01:33N 39°05' E 009°05'0 0.0
2015-Jun-19 00:33N 39°05' E 009°05'0 0.0
2015-Jun-18 23:33N 39°05' E 009°05'0 0.0
2015-Jun-18 22:30N 39°05' E 009°05'0 0.0
2015-Jun-18 21:33N 39°05' E 009°05'0 0.0
2015-Jun-18 20:33N 39°05' E 009°05'0 0.1
2015-Jun-18 19:33N 39°05' E 009°05'0 0.2
2015-Jun-18 18:33N 39°05' E 009°05'0 0.2
2015-Jun-18 17:33N 39°05' E 009°05'0 0.0
2015-Jun-18 16:33N 39°05' E 009°05'0 0.0
2015-Jun-18 15:33N 39°05' E 009°05'0 0.0
2015-Jun-18 14:33N 39°05' E 009°05'0 0.0
2015-Jun-18 13:33N 39°05' E 009°05'0 0.1
2015-Jun-18 12:33N 39°05' E 009°05'0 0.2
2015-Jun-18 11:33N 39°05' E 009°05'0 0.1
2015-Jun-18 10:33N 39°05' E 009°05'0 0.1
2015-Jun-18 09:33N 39°05' E 009°05'0 0.1
2015-Jun-18 08:33N 39°05' E 009°05'0 0.0
2015-Jun-18 07:33N 39°05' E 009°05'0 0.0
2015-Jun-18 06:33N 39°05' E 009°05'0 0.0
2015-Jun-18 05:33N 39°05' E 009°05'0 0.0
2015-Jun-18 04:33N 39°05' E 009°05'0 0.1
2015-Jun-18 03:33N 39°05' E 009°05'0 0.1
2015-Jun-18 02:33N 39°05' E 009°05'0 0.0
2015-Jun-18 01:33N 39°05' E 009°05'0 0.1
2015-Jun-18 00:30N 39°05' E 009°05'0 0.1
2015-Jun-17 23:33N 39°05' E 009°05'0 0.1
2015-Jun-17 22:33N 39°05' E 009°05'0 0.1
2015-Jun-17 21:33N 39°05' E 009°05'0 0.1
2015-Jun-17 20:33N 39°05' E 009°05'0 0.1
2015-Jun-17 19:33N 39°05' E 009°05'0 0.0
2015-Jun-17 18:33N 39°05' E 009°05'0 0.0
2015-Jun-17 17:33N 39°05' E 009°05'0 0.1
2015-Jun-17 16:33N 39°05' E 009°05'0 0.1
2015-Jun-17 15:33N 39°05' E 009°05'0 0.0
2015-Jun-17 14:33N 39°05' E 009°05'0 0.0
2015-Jun-17 13:33N 39°05' E 009°05'0 0.0
2015-Jun-17 12:33N 39°05' E 009°05'0 0.1
2015-Jun-17 11:33N 39°05' E 009°05'0 0.0
2015-Jun-17 10:33N 39°05' E 009°05'0 0.0
2015-Jun-17 09:33N 39°05' E 009°05'0 0.0
2015-Jun-17 08:33N 39°05' E 009°05'0 0.0
2015-Jun-17 07:33N 39°05' E 009°05'0 0.1
2015-Jun-17 06:33N 39°05' E 009°05'0 0.1
2015-Jun-17 05:33N 39°05' E 009°05'0 0.0
2015-Jun-17 04:33N 39°05' E 009°05'0 0.0
2015-Jun-17 03:33N 39°05' E 009°05'0 0.0
2015-Jun-17 02:33N 39°05' E 009°05'0 0.0
2015-Jun-17 01:33N 39°05' E 009°05'0 0.1
2015-Jun-17 00:33N 39°05' E 009°05'0 0.1
2015-Jun-16 23:33N 39°05' E 009°05'0 0.0
2015-Jun-16 22:33N 39°05' E 009°05'0 0.1
2015-Jun-16 21:33N 39°05' E 009°05'0 0.0
2015-Jun-16 20:33N 39°05' E 009°05'0 0.1
2015-Jun-16 19:33N 39°05' E 009°05'0 0.1
2015-Jun-16 18:33N 39°05' E 009°05'0 0.1
2015-Jun-16 17:33N 39°05' E 009°05'0 0.0
2015-Jun-16 16:33N 39°05' E 009°05'0 0.1
2015-Jun-16 15:33N 39°05' E 009°05'0 0.1
2015-Jun-16 14:33N 39°05' E 009°05'0 0.1
2015-Jun-16 13:30N 39°05' E 009°05'0 0.0
2015-Jun-16 12:33N 39°05' E 009°05'0 0.1
2015-Jun-16 11:33N 39°05' E 009°05'0 0.1
2015-Jun-16 10:33N 39°05' E 009°05'0 0.1
2015-Jun-16 09:33N 39°05' E 009°05'0 0.1
2015-Jun-16 08:33N 39°05' E 009°05'0 0.0
2015-Jun-16 07:33N 39°05' E 009°05'0 0.0
2015-Jun-16 06:33N 39°05' E 009°05'0 0.0
2015-Jun-16 05:33N 39°05' E 009°05'0 0.0
2015-Jun-16 04:33N 39°05' E 009°05'0 0.0
2015-Jun-16 03:33N 39°05' E 009°05'0 0.1
2015-Jun-16 02:33N 39°05' E 009°05'0 0.0
2015-Jun-16 01:33N 39°05' E 009°05'0 0.0
2015-Jun-16 00:33N 39°05' E 009°05'0 0.1
2015-Jun-15 23:33N 39°05' E 009°05'  

Dump ship's entire track history